Manacapuru, Brazil
Current Conditions -  °F | °C
As of 6:00 PM on Monday 20 Oct 2014 (Local Time) from SBEG Reporting Station
Clear Clear  
Wind Chill: 81°   Ceiling: Unl
Heat Index: 86°   Visibility: 6mi
Dew Point: 75°   Wind: 2mph
Humidity: 84%   Direction: 290°WNW
Pressure: 29.74"   Gusts: NA
Location:  3.29°S, 60.62°W
Report Text: SBEG 202200Z 29002KT CAVOK 27/24 Q1007
Loading
Personal Weather Stations






























Interactive Weather Map
Tropical Storm Tracking
New forecast layout! Learn more

10-Day Weather Forecast

Advertisements
Track Severe Weather on mobile